sensor_id;sensor_type;location;lat;lon;timestamp;P1;durP1;ratioP1;P2;durP2;ratioP2
20623;SDS011;10471;42.736;23.346;2023-01-23T00:01:12;9.97;;;8.13;;
20623;SDS011;10471;42.736;23.346;2023-01-23T00:03:39;12.53;;;8.90;;
20623;SDS011;10471;42.736;23.346;2023-01-23T00:06:07;12.17;;;9.30;;
20623;SDS011;10471;42.736;23.346;2023-01-23T00:08:37;14.17;;;9.57;;
20623;SDS011;10471;42.736;23.346;2023-01-23T00:11:06;13.83;;;9.97;;
20623;SDS011;10471;42.736;23.346;2023-01-23T00:13:33;15.50;;;9.43;;
20623;SDS011;10471;42.736;23.346;2023-01-23T00:16:02;13.37;;;8.73;;
20623;SDS011;10471;42.736;23.346;2023-01-23T00:18:31;12.00;;;8.53;;
20623;SDS011;10471;42.736;23.346;2023-01-23T00:20:57;11.60;;;8.63;;
20623;SDS011;10471;42.736;23.346;2023-01-23T00:23:22;12.87;;;8.53;;
20623;SDS011;10471;42.736;23.346;2023-01-23T00:25:48;15.03;;;9.83;;
20623;SDS011;10471;42.736;23.346;2023-01-23T00:28:13;13.97;;;8.77;;
20623;SDS011;10471;42.736;23.346;2023-01-23T00:30:39;13.50;;;8.80;;
20623;SDS011;10471;42.736;23.346;2023-01-23T00:33:04;13.43;;;8.97;;
20623;SDS011;10471;42.736;23.346;2023-01-23T00:35:29;11.53;;;9.20;;
20623;SDS011;10471;42.736;23.346;2023-01-23T00:37:55;13.60;;;9.33;;
20623;SDS011;10471;42.736;23.346;2023-01-23T00:40:21;12.87;;;9.87;;
20623;SDS011;10471;42.736;23.346;2023-01-23T00:42:47;12.60;;;9.47;;
20623;SDS011;10471;42.736;23.346;2023-01-23T00:45:12;13.73;;;9.57;;
20623;SDS011;10471;42.736;23.346;2023-01-23T00:47:38;12.67;;;9.63;;
20623;SDS011;10471;42.736;23.346;2023-01-23T00:50:03;12.33;;;10.30;;
20623;SDS011;10471;42.736;23.346;2023-01-23T00:52:29;14.93;;;9.63;;
20623;SDS011;10471;42.736;23.346;2023-01-23T00:54:54;17.03;;;10.97;;
20623;SDS011;10471;42.736;23.346;2023-01-23T00:57:20;16.50;;;10.93;;
20623;SDS011;10471;42.736;23.346;2023-01-23T00:59:45;13.07;;;9.90;;
20623;SDS011;10471;42.736;23.346;2023-01-23T01:02:10;16.10;;;9.70;;
20623;SDS011;10471;42.736;23.346;2023-01-23T01:04:36;15.13;;;10.27;;
20623;SDS011;10471;42.736;23.346;2023-01-23T01:07:01;12.03;;;9.53;;
20623;SDS011;10471;42.736;23.346;2023-01-23T01:09:27;13.73;;;10.10;;
20623;SDS011;10471;42.736;23.346;2023-01-23T01:11:52;12.97;;;9.50;;
20623;SDS011;10471;42.736;23.346;2023-01-23T01:14:18;11.27;;;9.27;;
20623;SDS011;10471;42.736;23.346;2023-01-23T01:16:43;13.03;;;9.80;;
20623;SDS011;10471;42.736;23.346;2023-01-23T01:19:13;14.53;;;9.67;;
20623;SDS011;10471;42.736;23.346;2023-01-23T01:21:41;12.27;;;9.00;;
20623;SDS011;10471;42.736;23.346;2023-01-23T01:24:06;12.00;;;9.33;;
20623;SDS011;10471;42.736;23.346;2023-01-23T01:26:32;14.77;;;9.40;;
20623;SDS011;10471;42.736;23.346;2023-01-23T01:28:58;13.37;;;9.63;;
20623;SDS011;10471;42.736;23.346;2023-01-23T01:31:23;15.13;;;9.07;;
20623;SDS011;10471;42.736;23.346;2023-01-23T01:33:48;13.90;;;8.90;;
20623;SDS011;10471;42.736;23.346;2023-01-23T01:36:15;13.20;;;9.60;;
20623;SDS011;10471;42.736;23.346;2023-01-23T01:38:43;13.63;;;8.97;;
20623;SDS011;10471;42.736;23.346;2023-01-23T01:41:09;14.70;;;9.23;;
20623;SDS011;10471;42.736;23.346;2023-01-23T01:43:36;14.60;;;9.40;;
20623;SDS011;10471;42.736;23.346;2023-01-23T01:48:48;12.23;;;8.23;;
20623;SDS011;10471;42.736;23.346;2023-01-23T01:51:36;14.37;;;8.03;;
20623;SDS011;10471;42.736;23.346;2023-01-23T01:59:28;14.50;;;8.40;;
20623;SDS011;10471;42.736;23.346;2023-01-23T02:02:01;14.20;;;8.30;;
20623;SDS011;10471;42.736;23.346;2023-01-23T02:04:35;13.70;;;9.17;;
20623;SDS011;10471;42.736;23.346;2023-01-23T02:07:06;13.77;;;8.77;;
20623;SDS011;10471;42.736;23.346;2023-01-23T02:09:38;13.57;;;8.73;;
20623;SDS011;10471;42.736;23.346;2023-01-23T02:12:05;13.83;;;8.23;;
20623;SDS011;10471;42.736;23.346;2023-01-23T02:14:31;14.03;;;7.83;;
20623;SDS011;10471;42.736;23.346;2023-01-23T02:16:56;13.40;;;7.73;;
20623;SDS011;10471;42.736;23.346;2023-01-23T02:19:29;13.33;;;7.70;;
20623;SDS011;10471;42.736;23.346;2023-01-23T02:22:14;11.60;;;7.57;;
20623;SDS011;10471;42.736;23.346;2023-01-23T02:25:01;13.60;;;7.77;;
20623;SDS011;10471;42.736;23.346;2023-01-23T02:27:51;11.20;;;7.27;;
20623;SDS011;10471;42.736;23.346;2023-01-23T02:30:17;12.30;;;7.57;;
20623;SDS011;10471;42.736;23.346;2023-01-23T02:32:43;11.17;;;7.20;;
20623;SDS011;10471;42.736;23.346;2023-01-23T02:35:10;12.43;;;7.93;;
20623;SDS011;10471;42.736;23.346;2023-01-23T02:37:41;11.70;;;7.73;;
20623;SDS011;10471;42.736;23.346;2023-01-23T02:40:09;15.73;;;8.10;;
20623;SDS011;10471;42.736;23.346;2023-01-23T02:42:35;12.57;;;7.27;;
20623;SDS011;10471;42.736;23.346;2023-01-23T02:45:04;11.40;;;7.37;;
20623;SDS011;10471;42.736;23.346;2023-01-23T02:47:30;11.07;;;6.73;;
20623;SDS011;10471;42.736;23.346;2023-01-23T02:49:57;11.53;;;6.70;;
20623;SDS011;10471;42.736;23.346;2023-01-23T02:52:23;11.73;;;7.37;;
20623;SDS011;10471;42.736;23.346;2023-01-23T02:54:48;13.47;;;7.17;;
20623;SDS011;10471;42.736;23.346;2023-01-23T02:57:14;10.07;;;6.17;;
20623;SDS011;10471;42.736;23.346;2023-01-23T02:59:39;11.00;;;6.23;;
20623;SDS011;10471;42.736;23.346;2023-01-23T03:02:23;9.13;;;6.07;;
20623;SDS011;10471;42.736;23.346;2023-01-23T03:04:49;10.07;;;6.43;;
20623;SDS011;10471;42.736;23.346;2023-01-23T03:07:14;9.27;;;6.40;;
20623;SDS011;10471;42.736;23.346;2023-01-23T03:09:39;12.00;;;6.40;;
20623;SDS011;10471;42.736;23.346;2023-01-23T03:12:06;11.37;;;6.13;;
20623;SDS011;10471;42.736;23.346;2023-01-23T03:14:33;10.50;;;5.70;;
20623;SDS011;10471;42.736;23.346;2023-01-23T03:16:58;9.80;;;5.23;;
20623;SDS011;10471;42.736;23.346;2023-01-23T03:19:25;9.50;;;5.50;;
20623;SDS011;10471;42.736;23.346;2023-01-23T03:21:51;8.47;;;5.50;;
20623;SDS011;10471;42.736;23.346;2023-01-23T03:24:17;10.27;;;6.03;;
20623;SDS011;10471;42.736;23.346;2023-01-23T03:26:44;9.03;;;5.53;;
20623;SDS011;10471;42.736;23.346;2023-01-23T03:29:18;8.10;;;5.40;;
20623;SDS011;10471;42.736;23.346;2023-01-23T03:32:04;7.87;;;5.03;;
20623;SDS011;10471;42.736;23.346;2023-01-23T03:34:30;7.77;;;4.97;;
20623;SDS011;10471;42.736;23.346;2023-01-23T03:36:56;7.83;;;5.03;;
20623;SDS011;10471;42.736;23.346;2023-01-23T03:39:22;8.07;;;4.83;;
20623;SDS011;10471;42.736;23.346;2023-01-23T03:42:06;9.77;;;5.60;;
20623;SDS011;10471;42.736;23.346;2023-01-23T03:44:32;7.37;;;5.20;;
20623;SDS011;10471;42.736;23.346;2023-01-23T03:46:57;9.50;;;5.30;;
20623;SDS011;10471;42.736;23.346;2023-01-23T03:49:23;9.90;;;5.40;;
20623;SDS011;10471;42.736;23.346;2023-01-23T03:51:48;9.40;;;5.93;;
20623;SDS011;10471;42.736;23.346;2023-01-23T03:54:14;7.17;;;5.37;;
20623;SDS011;10471;42.736;23.346;2023-01-23T03:56:40;9.73;;;5.27;;
20623;SDS011;10471;42.736;23.346;2023-01-23T03:59:06;8.60;;;4.80;;
20623;SDS011;10471;42.736;23.346;2023-01-23T04:01:32;6.70;;;4.40;;
20623;SDS011;10471;42.736;23.346;2023-01-23T04:03:57;5.50;;;3.83;;
20623;SDS011;10471;42.736;23.346;2023-01-23T04:06:23;7.67;;;4.13;;
20623;SDS011;10471;42.736;23.346;2023-01-23T04:08:48;6.10;;;3.90;;
20623;SDS011;10471;42.736;23.346;2023-01-23T04:11:14;7.27;;;4.43;;
20623;SDS011;10471;42.736;23.346;2023-01-23T04:13:39;6.40;;;4.13;;
20623;SDS011;10471;42.736;23.346;2023-01-23T04:16:05;7.77;;;4.57;;
20623;SDS011;10471;42.736;23.346;2023-01-23T04:18:31;6.57;;;4.60;;
20623;SDS011;10471;42.736;23.346;2023-01-23T04:20:57;6.57;;;4.50;;
20623;SDS011;10471;42.736;23.346;2023-01-23T04:23:23;5.80;;;4.13;;
20623;SDS011;10471;42.736;23.346;2023-01-23T04:25:49;7.00;;;4.23;;
20623;SDS011;10471;42.736;23.346;2023-01-23T04:28:15;8.73;;;5.03;;
20623;SDS011;10471;42.736;23.346;2023-01-23T04:30:41;7.40;;;5.03;;
20623;SDS011;10471;42.736;23.346;2023-01-23T04:33:06;8.63;;;5.50;;
20623;SDS011;10471;42.736;23.346;2023-01-23T04:35:32;8.07;;;5.13;;
20623;SDS011;10471;42.736;23.346;2023-01-23T04:37:58;8.67;;;5.33;;
20623;SDS011;10471;42.736;23.346;2023-01-23T04:40:23;8.33;;;5.73;;
20623;SDS011;10471;42.736;23.346;2023-01-23T04:42:49;12.40;;;5.80;;
20623;SDS011;10471;42.736;23.346;2023-01-23T04:45:14;11.17;;;5.73;;
20623;SDS011;10471;42.736;23.346;2023-01-23T04:47:39;10.33;;;5.40;;
20623;SDS011;10471;42.736;23.346;2023-01-23T04:50:05;9.43;;;5.00;;
20623;SDS011;10471;42.736;23.346;2023-01-23T04:52:31;7.40;;;5.20;;
20623;SDS011;10471;42.736;23.346;2023-01-23T04:54:56;6.97;;;4.73;;
20623;SDS011;10471;42.736;23.346;2023-01-23T04:57:22;6.63;;;4.50;;
20623;SDS011;10471;42.736;23.346;2023-01-23T04:59:47;7.37;;;4.40;;
20623;SDS011;10471;42.736;23.346;2023-01-23T05:02:12;6.30;;;3.60;;
20623;SDS011;10471;42.736;23.346;2023-01-23T05:04:38;4.77;;;2.83;;
20623;SDS011;10471;42.736;23.346;2023-01-23T05:07:03;4.93;;;2.83;;
20623;SDS011;10471;42.736;23.346;2023-01-23T05:09:29;5.20;;;3.40;;
20623;SDS011;10471;42.736;23.346;2023-01-23T05:11:54;8.80;;;4.30;;
20623;SDS011;10471;42.736;23.346;2023-01-23T05:14:20;6.40;;;3.30;;
20623;SDS011;10471;42.736;23.346;2023-01-23T05:16:47;5.80;;;2.97;;
20623;SDS011;10471;42.736;23.346;2023-01-23T05:19:13;6.70;;;3.30;;
20623;SDS011;10471;42.736;23.346;2023-01-23T05:21:38;8.43;;;3.73;;
20623;SDS011;10471;42.736;23.346;2023-01-23T05:24:04;7.03;;;3.43;;
20623;SDS011;10471;42.736;23.346;2023-01-23T05:26:29;6.70;;;3.53;;
20623;SDS011;10471;42.736;23.346;2023-01-23T05:28:55;9.83;;;3.87;;
20623;SDS011;10471;42.736;23.346;2023-01-23T05:31:20;7.13;;;3.80;;
20623;SDS011;10471;42.736;23.346;2023-01-23T05:33:45;6.90;;;3.77;;
20623;SDS011;10471;42.736;23.346;2023-01-23T05:36:11;5.53;;;3.03;;
20623;SDS011;10471;42.736;23.346;2023-01-23T05:38:36;6.77;;;3.23;;
20623;SDS011;10471;42.736;23.346;2023-01-23T05:41:02;5.47;;;3.63;;
20623;SDS011;10471;42.736;23.346;2023-01-23T05:43:27;6.13;;;3.70;;
20623;SDS011;10471;42.736;23.346;2023-01-23T05:45:53;6.43;;;4.10;;
20623;SDS011;10471;42.736;23.346;2023-01-23T05:48:18;8.23;;;4.10;;
20623;SDS011;10471;42.736;23.346;2023-01-23T05:50:43;4.73;;;3.37;;
20623;SDS011;10471;42.736;23.346;2023-01-23T05:53:09;8.73;;;4.63;;
20623;SDS011;10471;42.736;23.346;2023-01-23T05:55:36;6.93;;;4.33;;
20623;SDS011;10471;42.736;23.346;2023-01-23T05:58:02;5.43;;;3.50;;
20623;SDS011;10471;42.736;23.346;2023-01-23T06:00:27;5.60;;;4.10;;
20623;SDS011;10471;42.736;23.346;2023-01-23T06:02:53;6.07;;;3.67;;
20623;SDS011;10471;42.736;23.346;2023-01-23T06:05:18;5.53;;;3.50;;
20623;SDS011;10471;42.736;23.346;2023-01-23T06:07:44;5.93;;;3.73;;
20623;SDS011;10471;42.736;23.346;2023-01-23T06:10:09;6.13;;;3.57;;
20623;SDS011;10471;42.736;23.346;2023-01-23T06:12:35;6.37;;;3.77;;
20623;SDS011;10471;42.736;23.346;2023-01-23T06:15:00;6.27;;;4.10;;
20623;SDS011;10471;42.736;23.346;2023-01-23T06:17:26;7.77;;;4.90;;
20623;SDS011;10471;42.736;23.346;2023-01-23T06:19:51;9.93;;;4.90;;
20623;SDS011;10471;42.736;23.346;2023-01-23T06:22:16;7.83;;;5.43;;
20623;SDS011;10471;42.736;23.346;2023-01-23T06:24:42;8.80;;;5.40;;
20623;SDS011;10471;42.736;23.346;2023-01-23T06:27:07;11.20;;;6.03;;
20623;SDS011;10471;42.736;23.346;2023-01-23T06:29:33;11.03;;;6.07;;
20623;SDS011;10471;42.736;23.346;2023-01-23T06:32:00;11.20;;;6.73;;
20623;SDS011;10471;42.736;23.346;2023-01-23T06:34:25;9.90;;;6.90;;
20623;SDS011;10471;42.736;23.346;2023-01-23T06:36:50;10.30;;;6.33;;
20623;SDS011;10471;42.736;23.346;2023-01-23T06:39:16;9.53;;;6.33;;
20623;SDS011;10471;42.736;23.346;2023-01-23T06:41:41;9.70;;;5.83;;
20623;SDS011;10471;42.736;23.346;2023-01-23T06:44:07;11.03;;;6.73;;
20623;SDS011;10471;42.736;23.346;2023-01-23T06:46:32;10.70;;;5.83;;
20623;SDS011;10471;42.736;23.346;2023-01-23T06:48:58;10.03;;;6.50;;
20623;SDS011;10471;42.736;23.346;2023-01-23T06:51:24;12.40;;;6.43;;
20623;SDS011;10471;42.736;23.346;2023-01-23T06:53:49;11.90;;;6.03;;
20623;SDS011;10471;42.736;23.346;2023-01-23T06:56:15;7.77;;;4.83;;
20623;SDS011;10471;42.736;23.346;2023-01-23T06:58:42;8.23;;;4.63;;
20623;SDS011;10471;42.736;23.346;2023-01-23T07:01:11;6.70;;;4.37;;
20623;SDS011;10471;42.736;23.346;2023-01-23T07:03:39;8.83;;;5.30;;
20623;SDS011;10471;42.736;23.346;2023-01-23T07:06:06;9.33;;;5.37;;
20623;SDS011;10471;42.736;23.346;2023-01-23T07:08:31;9.40;;;5.77;;
20623;SDS011;10471;42.736;23.346;2023-01-23T07:10:58;11.40;;;6.23;;
20623;SDS011;10471;42.736;23.346;2023-01-23T07:13:24;14.73;;;7.07;;
20623;SDS011;10471;42.736;23.346;2023-01-23T07:15:49;15.27;;;7.00;;
20623;SDS011;10471;42.736;23.346;2023-01-23T07:18:14;12.60;;;7.40;;
20623;SDS011;10471;42.736;23.346;2023-01-23T07:20:42;13.60;;;7.90;;
20623;SDS011;10471;42.736;23.346;2023-01-23T07:23:08;14.03;;;7.97;;
20623;SDS011;10471;42.736;23.346;2023-01-23T07:25:34;12.93;;;7.00;;
20623;SDS011;10471;42.736;23.346;2023-01-23T07:27:59;13.07;;;7.33;;
20623;SDS011;10471;42.736;23.346;2023-01-23T07:30:25;12.83;;;7.20;;
20623;SDS011;10471;42.736;23.346;2023-01-23T07:32:50;11.80;;;7.40;;
20623;SDS011;10471;42.736;23.346;2023-01-23T07:35:16;11.93;;;7.53;;
20623;SDS011;10471;42.736;23.346;2023-01-23T07:37:41;13.13;;;7.80;;
20623;SDS011;10471;42.736;23.346;2023-01-23T07:40:07;12.47;;;7.93;;
20623;SDS011;10471;42.736;23.346;2023-01-23T07:42:33;12.80;;;7.70;;
20623;SDS011;10471;42.736;23.346;2023-01-23T07:44:58;13.50;;;8.40;;
20623;SDS011;10471;42.736;23.346;2023-01-23T07:47:24;15.47;;;8.70;;
20623;SDS011;10471;42.736;23.346;2023-01-23T07:49:49;16.60;;;8.67;;
20623;SDS011;10471;42.736;23.346;2023-01-23T07:52:14;16.77;;;8.90;;
20623;SDS011;10471;42.736;23.346;2023-01-23T07:54:40;17.20;;;8.90;;
20623;SDS011;10471;42.736;23.346;2023-01-23T07:57:05;17.30;;;8.60;;
20623;SDS011;10471;42.736;23.346;2023-01-23T07:59:30;13.10;;;7.93;;
20623;SDS011;10471;42.736;23.346;2023-01-23T08:01:56;12.67;;;8.00;;
20623;SDS011;10471;42.736;23.346;2023-01-23T08:04:21;13.17;;;7.93;;
20623;SDS011;10471;42.736;23.346;2023-01-23T08:06:47;12.30;;;6.97;;
20623;SDS011;10471;42.736;23.346;2023-01-23T08:09:12;11.67;;;7.67;;
20623;SDS011;10471;42.736;23.346;2023-01-23T08:11:38;15.73;;;7.57;;
20623;SDS011;10471;42.736;23.346;2023-01-23T08:14:04;14.93;;;8.20;;
20623;SDS011;10471;42.736;23.346;2023-01-23T08:16:29;12.63;;;7.87;;
20623;SDS011;10471;42.736;23.346;2023-01-23T08:18:55;16.00;;;8.07;;
20623;SDS011;10471;42.736;23.346;2023-01-23T08:21:20;16.67;;;7.60;;
20623;SDS011;10471;42.736;23.346;2023-01-23T08:23:46;16.70;;;8.37;;
20623;SDS011;10471;42.736;23.346;2023-01-23T08:26:12;14.90;;;8.13;;
20623;SDS011;10471;42.736;23.346;2023-01-23T08:28:39;12.50;;;6.83;;
20623;SDS011;10471;42.736;23.346;2023-01-23T08:31:10;12.87;;;7.70;;
20623;SDS011;10471;42.736;23.346;2023-01-23T08:33:37;14.50;;;7.33;;
20623;SDS011;10471;42.736;23.346;2023-01-23T08:36:03;13.63;;;7.20;;
20623;SDS011;10471;42.736;23.346;2023-01-23T08:38:29;13.60;;;6.70;;
20623;SDS011;10471;42.736;23.346;2023-01-23T08:40:57;13.07;;;7.13;;
20623;SDS011;10471;42.736;23.346;2023-01-23T08:43:24;17.30;;;8.60;;
20623;SDS011;10471;42.736;23.346;2023-01-23T08:45:51;12.73;;;7.50;;
20623;SDS011;10471;42.736;23.346;2023-01-23T08:48:17;12.43;;;7.27;;
20623;SDS011;10471;42.736;23.346;2023-01-23T08:50:44;11.90;;;6.27;;
20623;SDS011;10471;42.736;23.346;2023-01-23T08:53:10;9.60;;;6.10;;
20623;SDS011;10471;42.736;23.346;2023-01-23T08:55:36;13.40;;;7.80;;
20623;SDS011;10471;42.736;23.346;2023-01-23T08:58:03;11.70;;;6.23;;
20623;SDS011;10471;42.736;23.346;2023-01-23T09:00:29;13.60;;;5.60;;
20623;SDS011;10471;42.736;23.346;2023-01-23T09:02:54;9.20;;;5.47;;
20623;SDS011;10471;42.736;23.346;2023-01-23T09:05:20;10.30;;;5.73;;
20623;SDS011;10471;42.736;23.346;2023-01-23T09:07:46;9.27;;;5.07;;
20623;SDS011;10471;42.736;23.346;2023-01-23T09:10:11;6.33;;;4.40;;
20623;SDS011;10471;42.736;23.346;2023-01-23T09:12:37;10.10;;;5.33;;
20623;SDS011;10471;42.736;23.346;2023-01-23T09:15:05;9.07;;;5.60;;
20623;SDS011;10471;42.736;23.346;2023-01-23T09:17:31;8.63;;;4.77;;
20623;SDS011;10471;42.736;23.346;2023-01-23T09:19:57;6.87;;;4.53;;
20623;SDS011;10471;42.736;23.346;2023-01-23T09:22:24;7.40;;;4.53;;
20623;SDS011;10471;42.736;23.346;2023-01-23T09:24:50;6.93;;;4.10;;
20623;SDS011;10471;42.736;23.346;2023-01-23T09:27:15;6.17;;;3.47;;
20623;SDS011;10471;42.736;23.346;2023-01-23T09:29:40;4.37;;;2.87;;
20623;SDS011;10471;42.736;23.346;2023-01-23T09:32:06;4.63;;;2.93;;
20623;SDS011;10471;42.736;23.346;2023-01-23T09:34:32;5.80;;;3.13;;
20623;SDS011;10471;42.736;23.346;2023-01-23T09:36:58;5.80;;;3.30;;
20623;SDS011;10471;42.736;23.346;2023-01-23T09:39:23;5.67;;;3.30;;
20623;SDS011;10471;42.736;23.346;2023-01-23T09:41:48;5.63;;;3.33;;
20623;SDS011;10471;42.736;23.346;2023-01-23T09:46:44;6.27;;;3.47;;
20623;SDS011;10471;42.736;23.346;2023-01-23T09:52:15;4.87;;;3.40;;
20623;SDS011;10471;42.736;23.346;2023-01-23T09:54:45;6.57;;;3.83;;
20623;SDS011;10471;42.736;23.346;2023-01-23T09:57:17;3.70;;;2.70;;
20623;SDS011;10471;42.736;23.346;2023-01-23T09:59:49;7.43;;;3.50;;
20623;SDS011;10471;42.736;23.346;2023-01-23T10:02:18;5.87;;;3.80;;
20623;SDS011;10471;42.736;23.346;2023-01-23T10:04:46;6.93;;;3.53;;
20623;SDS011;10471;42.736;23.346;2023-01-23T10:07:19;4.93;;;3.53;;
20623;SDS011;10471;42.736;23.346;2023-01-23T10:09:59;7.13;;;3.67;;
20623;SDS011;10471;42.736;23.346;2023-01-23T10:12:46;5.60;;;3.67;;
20623;SDS011;10471;42.736;23.346;2023-01-23T10:20:42;5.10;;;3.90;;
20623;SDS011;10471;42.736;23.346;2023-01-23T10:23:31;6.67;;;4.47;;
20623;SDS011;10471;42.736;23.346;2023-01-23T10:26:14;6.20;;;4.23;;
20623;SDS011;10471;42.736;23.346;2023-01-23T10:28:44;8.07;;;4.10;;
20623;SDS011;10471;42.736;23.346;2023-01-23T10:33:57;7.83;;;4.63;;
20623;SDS011;10471;42.736;23.346;2023-01-23T10:36:33;9.30;;;4.53;;
20623;SDS011;10471;42.736;23.346;2023-01-23T10:39:21;6.60;;;4.27;;
20623;SDS011;10471;42.736;23.346;2023-01-23T10:42:09;7.17;;;3.97;;
20623;SDS011;10471;42.736;23.346;2023-01-23T10:44:36;5.83;;;4.17;;
20623;SDS011;10471;42.736;23.346;2023-01-23T10:47:02;7.17;;;4.33;;
20623;SDS011;10471;42.736;23.346;2023-01-23T10:49:36;8.40;;;5.13;;
20623;SDS011;10471;42.736;23.346;2023-01-23T10:52:27;8.83;;;5.10;;
20623;SDS011;10471;42.736;23.346;2023-01-23T10:54:52;8.70;;;5.60;;
20623;SDS011;10471;42.736;23.346;2023-01-23T10:57:22;9.50;;;5.63;;
20623;SDS011;10471;42.736;23.346;2023-01-23T10:59:59;8.13;;;5.07;;
20623;SDS011;10471;42.736;23.346;2023-01-23T11:02:33;10.00;;;5.37;;
20623;SDS011;10471;42.736;23.346;2023-01-23T11:05:01;8.53;;;5.60;;
20623;SDS011;10471;42.736;23.346;2023-01-23T11:07:52;8.03;;;5.23;;
20623;SDS011;10471;42.736;23.346;2023-01-23T11:10:19;6.70;;;4.70;;
20623;SDS011;10471;42.736;23.346;2023-01-23T11:12:50;9.10;;;4.87;;
20623;SDS011;10471;42.736;23.346;2023-01-23T11:17:48;8.13;;;5.37;;
20623;SDS011;10471;42.736;23.346;2023-01-23T11:20:28;7.43;;;4.97;;
20623;SDS011;10471;42.736;23.346;2023-01-23T11:23:00;7.70;;;4.90;;
20623;SDS011;10471;42.736;23.346;2023-01-23T11:25:36;7.43;;;4.77;;
20623;SDS011;10471;42.736;23.346;2023-01-23T11:36:26;7.77;;;5.40;;
20623;SDS011;10471;42.736;23.346;2023-01-23T11:39:15;7.90;;;5.00;;
20623;SDS011;10471;42.736;23.346;2023-01-23T11:41:48;8.50;;;5.53;;
20623;SDS011;10471;42.736;23.346;2023-01-23T11:44:17;6.97;;;5.43;;
20623;SDS011;10471;42.736;23.346;2023-01-23T11:55:07;8.33;;;5.10;;
20623;SDS011;10471;42.736;23.346;2023-01-23T11:58:02;8.23;;;5.23;;
20623;SDS011;10471;42.736;23.346;2023-01-23T12:21:00;8.97;;;5.93;;
20623;SDS011;10471;42.736;23.346;2023-01-23T12:26:21;9.83;;;7.27;;
20623;SDS011;10471;42.736;23.346;2023-01-23T12:29:05;10.07;;;6.77;;
20623;SDS011;10471;42.736;23.346;2023-01-23T12:34:50;11.60;;;7.10;;
20623;SDS011;10471;42.736;23.346;2023-01-23T12:37:36;12.13;;;7.43;;
20623;SDS011;10471;42.736;23.346;2023-01-23T12:40:27;11.57;;;7.70;;
20623;SDS011;10471;42.736;23.346;2023-01-23T12:43:01;11.60;;;6.73;;
20623;SDS011;10471;42.736;23.346;2023-01-23T12:45:33;11.17;;;7.73;;
20623;SDS011;10471;42.736;23.346;2023-01-23T12:48:09;11.10;;;7.40;;
20623;SDS011;10471;42.736;23.346;2023-01-23T12:53:21;12.20;;;8.90;;
20623;SDS011;10471;42.736;23.346;2023-01-23T12:58:35;12.87;;;8.60;;
20623;SDS011;10471;42.736;23.346;2023-01-23T13:01:13;13.67;;;8.47;;
20623;SDS011;10471;42.736;23.346;2023-01-23T13:09:19;17.17;;;10.73;;
20623;SDS011;10471;42.736;23.346;2023-01-23T13:12:03;19.10;;;11.90;;
20623;SDS011;10471;42.736;23.346;2023-01-23T13:14:36;15.17;;;10.10;;
20623;SDS011;10471;42.736;23.346;2023-01-23T13:17:25;17.10;;;10.80;;
20623;SDS011;10471;42.736;23.346;2023-01-23T13:20:06;20.27;;;12.00;;
20623;SDS011;10471;42.736;23.346;2023-01-23T13:28:40;21.40;;;13.67;;
20623;SDS011;10471;42.736;23.346;2023-01-23T13:36:39;29.73;;;17.17;;
20623;SDS011;10471;42.736;23.346;2023-01-23T13:46:58;30.53;;;17.00;;
20623;SDS011;10471;42.736;23.346;2023-01-23T13:52:38;27.80;;;14.90;;
20623;SDS011;10471;42.736;23.346;2023-01-23T13:55:32;29.37;;;15.87;;
20623;SDS011;10471;42.736;23.346;2023-01-23T13:58:22;30.90;;;15.47;;
20623;SDS011;10471;42.736;23.346;2023-01-23T14:01:15;29.47;;;16.60;;
20623;SDS011;10471;42.736;23.346;2023-01-23T14:04:08;25.23;;;15.13;;
20623;SDS011;10471;42.736;23.346;2023-01-23T14:06:56;26.27;;;15.03;;
20623;SDS011;10471;42.736;23.346;2023-01-23T14:09:29;29.67;;;16.33;;
20623;SDS011;10471;42.736;23.346;2023-01-23T14:11:59;24.57;;;14.57;;
20623;SDS011;10471;42.736;23.346;2023-01-23T14:14:27;23.17;;;14.77;;
20623;SDS011;10471;42.736;23.346;2023-01-23T14:17:16;24.63;;;15.10;;
20623;SDS011;10471;42.736;23.346;2023-01-23T14:19:52;24.63;;;14.60;;
20623;SDS011;10471;42.736;23.346;2023-01-23T14:22:19;20.60;;;13.17;;
20623;SDS011;10471;42.736;23.346;2023-01-23T14:24:46;23.27;;;13.00;;
20623;SDS011;10471;42.736;23.346;2023-01-23T14:27:47;20.63;;;12.37;;
20623;SDS011;10471;42.736;23.346;2023-01-23T14:30:18;21.43;;;13.43;;
20623;SDS011;10471;42.736;23.346;2023-01-23T14:32:47;24.13;;;13.80;;
20623;SDS011;10471;42.736;23.346;2023-01-23T14:35:17;23.53;;;13.53;;
20623;SDS011;10471;42.736;23.346;2023-01-23T14:37:51;24.30;;;14.43;;
20623;SDS011;10471;42.736;23.346;2023-01-23T14:40:19;26.80;;;15.70;;
20623;SDS011;10471;42.736;23.346;2023-01-23T14:42:50;26.77;;;14.63;;
20623;SDS011;10471;42.736;23.346;2023-01-23T14:45:23;25.57;;;15.13;;
20623;SDS011;10471;42.736;23.346;2023-01-23T14:47:53;27.77;;;15.53;;
20623;SDS011;10471;42.736;23.346;2023-01-23T14:50:20;28.90;;;15.37;;
20623;SDS011;10471;42.736;23.346;2023-01-23T14:52:57;25.87;;;15.93;;
20623;SDS011;10471;42.736;23.346;2023-01-23T14:55:26;30.23;;;16.43;;
20623;SDS011;10471;42.736;23.346;2023-01-23T14:57:53;28.90;;;16.63;;
20623;SDS011;10471;42.736;23.346;2023-01-23T15:00:21;29.00;;;16.70;;
20623;SDS011;10471;42.736;23.346;2023-01-23T15:02:48;28.93;;;17.23;;
20623;SDS011;10471;42.736;23.346;2023-01-23T15:05:22;31.70;;;16.57;;
20623;SDS011;10471;42.736;23.346;2023-01-23T15:07:57;30.50;;;16.33;;
20623;SDS011;10471;42.736;23.346;2023-01-23T15:10:28;29.97;;;16.97;;
20623;SDS011;10471;42.736;23.346;2023-01-23T15:13:00;35.87;;;18.40;;
20623;SDS011;10471;42.736;23.346;2023-01-23T15:15:29;32.70;;;18.47;;
20623;SDS011;10471;42.736;23.346;2023-01-23T15:17:58;29.70;;;16.47;;
20623;SDS011;10471;42.736;23.346;2023-01-23T15:20:37;27.13;;;16.03;;
20623;SDS011;10471;42.736;23.346;2023-01-23T15:25:43;31.03;;;16.07;;
20623;SDS011;10471;42.736;23.346;2023-01-23T15:28:28;32.87;;;17.33;;
20623;SDS011;10471;42.736;23.346;2023-01-23T15:30:55;30.33;;;16.40;;
20623;SDS011;10471;42.736;23.346;2023-01-23T15:33:31;30.53;;;16.60;;
20623;SDS011;10471;42.736;23.346;2023-01-23T15:36:05;28.63;;;16.47;;
20623;SDS011;10471;42.736;23.346;2023-01-23T15:38:32;27.70;;;15.60;;
20623;SDS011;10471;42.736;23.346;2023-01-23T15:40:58;27.97;;;16.30;;
20623;SDS011;10471;42.736;23.346;2023-01-23T15:43:23;25.67;;;15.17;;
20623;SDS011;10471;42.736;23.346;2023-01-23T15:45:49;29.17;;;14.83;;
20623;SDS011;10471;42.736;23.346;2023-01-23T15:48:14;26.33;;;15.10;;
20623;SDS011;10471;42.736;23.346;2023-01-23T15:50:40;27.33;;;15.33;;
20623;SDS011;10471;42.736;23.346;2023-01-23T15:53:11;25.90;;;14.33;;
20623;SDS011;10471;42.736;23.346;2023-01-23T15:55:38;29.73;;;14.40;;
20623;SDS011;10471;42.736;23.346;2023-01-23T15:58:03;27.00;;;14.47;;
20623;SDS011;10471;42.736;23.346;2023-01-23T16:00:29;23.00;;;13.13;;
20623;SDS011;10471;42.736;23.346;2023-01-23T16:02:55;29.37;;;16.73;;
20623;SDS011;10471;42.736;23.346;2023-01-23T16:05:23;26.23;;;16.00;;
20623;SDS011;10471;42.736;23.346;2023-01-23T16:07:51;23.30;;;13.53;;
20623;SDS011;10471;42.736;23.346;2023-01-23T16:10:19;18.67;;;11.10;;
20623;SDS011;10471;42.736;23.346;2023-01-23T16:12:47;14.80;;;9.80;;
20623;SDS011;10471;42.736;23.346;2023-01-23T16:15:14;13.53;;;8.57;;
20623;SDS011;10471;42.736;23.346;2023-01-23T16:17:42;10.40;;;7.10;;